createdAt,value
2019-05-18T00:00:44.460Z,99.90
2019-05-18T00:03:13.679Z,99.90
2019-05-18T00:05:42.482Z,99.90
2019-05-18T00:08:10.935Z,99.90
2019-05-18T00:10:39.460Z,99.90
2019-05-18T00:13:08.048Z,99.90
2019-05-18T00:15:36.511Z,99.90
2019-05-18T00:18:13.814Z,99.90
2019-05-18T00:20:50.006Z,99.90
2019-05-18T00:23:18.443Z,99.90
2019-05-18T00:25:46.915Z,99.90
2019-05-18T00:28:15.342Z,99.90
2019-05-18T00:30:43.883Z,99.90
2019-05-18T00:33:12.384Z,99.90
2019-05-18T00:35:41.059Z,99.90
2019-05-18T00:38:09.515Z,99.90
2019-05-18T00:40:37.913Z,99.90
2019-05-18T00:43:11.528Z,99.90
2019-05-18T00:45:40.284Z,99.90
2019-05-18T00:48:08.717Z,99.90
2019-05-18T00:50:37.206Z,99.90
2019-05-18T00:53:05.733Z,99.90
2019-05-18T00:55:34.170Z,99.90
2019-05-18T00:58:02.586Z,99.90
2019-05-18T01:00:31.125Z,99.90
2019-05-18T01:02:59.545Z,99.90
2019-05-18T01:05:28.051Z,99.90
2019-05-18T01:07:56.475Z,99.90
2019-05-18T01:10:24.903Z,99.90
2019-05-18T01:12:53.493Z,99.90
2019-05-18T01:15:22.150Z,99.90
2019-05-18T01:17:57.297Z,99.90
2019-05-18T01:20:20.911Z,99.90
2019-05-18T01:22:49.455Z,99.90
2019-05-18T01:25:17.987Z,99.90
2019-05-18T01:27:46.419Z,99.90
2019-05-18T01:30:15.514Z,99.90
2019-05-18T01:32:44.033Z,99.90
2019-05-18T01:35:12.825Z,99.90
2019-05-18T01:37:42.346Z,99.90
2019-05-18T01:40:11.195Z,99.90
2019-05-18T01:42:39.759Z,99.90
2019-05-18T01:45:16.948Z,99.90
2019-05-18T01:47:43.482Z,99.90
2019-05-18T01:50:12.580Z,99.90
2019-05-18T01:52:41.592Z,99.90
2019-05-18T01:55:10.378Z,99.90
2019-05-18T01:57:38.824Z,99.90
2019-05-18T02:00:08.282Z,99.90
2019-05-18T02:02:36.819Z,99.90
2019-05-18T02:05:07.040Z,99.90
2019-05-18T02:07:35.471Z,99.90
2019-05-18T02:10:07.408Z,99.90
2019-05-18T02:12:35.830Z,99.90
2019-05-18T02:15:08.303Z,99.90
2019-05-18T02:17:36.716Z,99.90
2019-05-18T02:20:05.935Z,99.90
2019-05-18T02:22:34.346Z,99.90
2019-05-18T02:25:04.133Z,99.90
2019-05-18T02:27:32.743Z,99.90
2019-05-18T02:30:02.589Z,99.90
2019-05-18T02:32:31.018Z,99.90
2019-05-18T02:34:59.514Z,99.90
2019-05-18T02:37:33.931Z,99.90
2019-05-18T02:40:02.465Z,99.90
2019-05-18T02:42:31.824Z,99.90
2019-05-18T02:45:00.352Z,99.90
2019-05-18T02:47:28.799Z,99.90
2019-05-18T02:49:57.458Z,99.90
2019-05-18T02:52:25.868Z,99.90
2019-05-18T02:54:54.291Z,99.90
2019-05-18T02:57:22.810Z,99.90
2019-05-18T02:59:51.232Z,99.90
2019-05-18T03:02:19.684Z,99.90
2019-05-18T03:04:48.157Z,99.90
2019-05-18T03:07:16.742Z,99.90
2019-05-18T03:09:45.261Z,99.90
2019-05-18T03:12:13.688Z,99.90
2019-05-18T03:14:42.111Z,99.90
2019-05-18T03:17:10.635Z,99.90
2019-05-18T03:19:39.127Z,99.90
2019-05-18T03:22:07.588Z,99.90
2019-05-18T03:24:36.037Z,99.90
2019-05-18T03:27:13.049Z,99.90
2019-05-18T03:29:41.701Z,99.90
2019-05-18T03:32:11.914Z,99.90
2019-05-18T03:34:41.475Z,99.90
2019-05-18T03:37:11.829Z,99.90
2019-05-18T03:39:40.276Z,99.90
2019-05-18T03:42:08.813Z,99.90
2019-05-18T03:44:37.294Z,99.90
2019-05-18T03:47:05.841Z,99.90
2019-05-18T03:49:34.412Z,99.90
2019-05-18T03:52:05.339Z,99.90
2019-05-18T03:54:33.847Z,99.90
2019-05-18T03:57:02.305Z,99.90
2019-05-18T03:59:30.822Z,99.90
2019-05-18T04:01:59.268Z,99.90
2019-05-18T04:04:27.703Z,99.90
2019-05-18T04:06:56.225Z,99.90
2019-05-18T04:09:24.661Z,99.90
2019-05-18T04:11:53.094Z,99.90
2019-05-18T04:14:21.999Z,99.90
2019-05-18T04:16:50.806Z,99.90
2019-05-18T04:19:19.915Z,99.90
2019-05-18T04:21:48.409Z,99.90
2019-05-18T04:24:16.898Z,99.90
2019-05-18T04:26:45.698Z,99.90
2019-05-18T04:29:14.291Z,99.90
2019-05-18T04:31:42.751Z,99.90
2019-05-18T04:34:11.264Z,99.90
2019-05-18T04:36:39.755Z,99.90
2019-05-18T04:39:08.316Z,99.90
2019-05-18T04:41:36.894Z,99.90
2019-05-18T04:44:05.338Z,99.90
2019-05-18T04:46:33.804Z,99.90
2019-05-18T04:49:03.463Z,99.90
2019-05-18T04:51:32.103Z,99.90
2019-05-18T04:54:00.530Z,99.90
2019-05-18T04:56:29.123Z,99.90
2019-05-18T04:58:57.632Z,99.90
2019-05-18T05:01:26.177Z,99.90
2019-05-18T05:03:54.618Z,99.90
2019-05-18T05:06:23.472Z,99.90
2019-05-18T05:08:52.333Z,99.90
2019-05-18T05:11:20.878Z,99.90
2019-05-18T05:13:49.821Z,99.90
2019-05-18T05:16:18.437Z,99.90
2019-05-18T05:18:52.635Z,99.90
2019-05-18T05:21:21.195Z,99.90
2019-05-18T05:23:49.835Z,99.90
2019-05-18T05:26:18.274Z,99.90
2019-05-18T05:28:46.767Z,99.90
2019-05-18T05:31:15.647Z,99.90
2019-05-18T05:33:44.672Z,99.90
2019-05-18T05:36:13.298Z,99.90
2019-05-18T05:38:42.541Z,99.90
2019-05-18T05:41:16.365Z,99.90
2019-05-18T05:43:41.430Z,99.90
2019-05-18T05:46:10.248Z,99.90
2019-05-18T05:48:38.689Z,99.90
2019-05-18T05:51:12.078Z,99.80
2019-05-18T05:53:40.602Z,99.70
2019-05-18T05:56:09.158Z,99.60
2019-05-18T05:58:37.650Z,99.90
2019-05-18T06:01:06.643Z,99.10
2019-05-18T06:03:35.465Z,98.80
2019-05-18T06:06:04.153Z,98.70
2019-05-18T06:08:32.950Z,99.10
2019-05-18T06:11:04.487Z,99.20
2019-05-18T06:13:33.006Z,98.80
2019-05-18T06:16:01.744Z,98.00
2019-05-18T06:18:30.467Z,98.00
2019-05-18T06:21:02.676Z,98.10
2019-05-18T06:23:31.168Z,97.90
2019-05-18T06:25:59.833Z,97.70
2019-05-18T06:28:28.351Z,97.60
2019-05-18T06:30:56.753Z,97.70
2019-05-18T06:33:25.223Z,97.60
2019-05-18T06:35:53.638Z,97.30
2019-05-18T06:38:22.079Z,96.80
2019-05-18T06:40:50.482Z,96.70
2019-05-18T06:43:18.958Z,96.40
2019-05-18T06:45:47.498Z,95.60
2019-05-18T06:48:16.031Z,95.20
2019-05-18T06:50:44.458Z,95.70
2019-05-18T06:53:12.915Z,95.50
2019-05-18T06:55:41.854Z,95.50
2019-05-18T06:58:11.269Z,94.60
2019-05-18T07:00:39.967Z,95.00
2019-05-18T07:03:08.407Z,95.00
2019-05-18T07:05:37.140Z,94.70
2019-05-18T07:08:05.687Z,94.20
2019-05-18T07:10:35.832Z,94.80
2019-05-18T07:13:04.379Z,94.50
2019-05-18T07:15:33.077Z,94.70
2019-05-18T07:18:04.265Z,94.00
2019-05-18T07:20:32.797Z,93.80
2019-05-18T07:23:01.266Z,92.50
2019-05-18T07:25:29.675Z,92.00
2019-05-18T07:27:58.115Z,90.90
2019-05-18T07:30:26.530Z,90.20
2019-05-18T07:32:54.993Z,90.80
2019-05-18T07:35:23.533Z,90.70
2019-05-18T07:37:51.986Z,90.00
2019-05-18T07:40:20.496Z,90.10
2019-05-18T07:42:49.192Z,90.40
2019-05-18T07:45:17.844Z,91.10
2019-05-18T07:47:46.290Z,90.10
2019-05-18T07:50:15.130Z,90.80
2019-05-18T07:52:43.574Z,90.30
2019-05-18T07:55:12.924Z,90.20
2019-05-18T07:57:41.371Z,89.20
2019-05-18T08:00:10.094Z,88.40
2019-05-18T08:02:38.658Z,89.80
2019-05-18T08:05:07.634Z,89.80
2019-05-18T08:07:36.110Z,90.20
2019-05-18T08:10:06.683Z,90.40
2019-05-18T08:12:35.134Z,89.90
2019-05-18T08:15:05.238Z,89.80
2019-05-18T08:17:33.707Z,88.80
2019-05-18T08:20:02.169Z,90.10
2019-05-18T08:22:30.779Z,90.00
2019-05-18T08:24:59.207Z,88.60
2019-05-18T08:27:27.647Z,88.10
2019-05-18T08:29:56.076Z,84.90
2019-05-18T08:32:24.556Z,84.20
2019-05-18T08:34:53.107Z,80.60
2019-05-18T08:37:22.746Z,79.80
2019-05-18T08:39:51.639Z,78.50
2019-05-18T08:42:20.120Z,81.00
2019-05-18T08:44:48.553Z,82.00
2019-05-18T08:47:17.002Z,85.30
2019-05-18T08:49:45.519Z,86.50
2019-05-18T08:52:13.947Z,85.80
2019-05-18T08:54:42.455Z,85.30
2019-05-18T08:57:10.946Z,85.60
2019-05-18T08:59:39.972Z,85.10
2019-05-18T09:02:08.690Z,82.90
2019-05-18T09:04:37.195Z,81.50
2019-05-18T09:07:05.863Z,82.70
2019-05-18T09:09:34.383Z,84.00
2019-05-18T09:12:02.966Z,83.90
2019-05-18T09:14:31.503Z,85.60
2019-05-18T09:16:59.927Z,81.60
2019-05-18T09:19:28.529Z,82.50
2019-05-18T09:21:57.053Z,82.50
2019-05-18T09:24:25.596Z,83.50
2019-05-18T09:26:54.175Z,83.90
2019-05-18T09:29:22.716Z,82.30
2019-05-18T09:31:51.258Z,83.60
2019-05-18T09:34:19.761Z,83.10
2019-05-18T09:36:48.374Z,84.70
2019-05-18T09:39:16.976Z,84.20
2019-05-18T09:41:48.942Z,85.90
2019-05-18T09:44:36.716Z,84.10
2019-05-18T09:47:08.300Z,81.40
2019-05-18T09:49:36.862Z,80.80
2019-05-18T09:52:05.574Z,80.40
2019-05-18T09:54:34.017Z,77.70
2019-05-18T09:57:02.630Z,77.90
2019-05-18T09:59:31.121Z,78.90
2019-05-18T10:01:59.584Z,79.20
2019-05-18T10:04:28.014Z,74.00
2019-05-18T10:06:56.586Z,72.50
2019-05-18T10:09:25.437Z,71.60
2019-05-18T10:11:54.151Z,72.70
2019-05-18T10:14:22.590Z,72.20
2019-05-18T10:16:51.190Z,73.10
2019-05-18T10:19:19.708Z,75.90
2019-05-18T10:21:48.209Z,72.30
2019-05-18T10:24:16.846Z,70.00
2019-05-18T10:26:45.307Z,71.70
2019-05-18T10:29:14.043Z,66.20
2019-05-18T10:31:42.499Z,65.10
2019-05-18T10:34:11.021Z,62.60
2019-05-18T10:36:39.577Z,61.20
2019-05-18T10:39:08.260Z,63.00
2019-05-18T10:41:38.199Z,65.00
2019-05-18T10:44:06.883Z,63.00
2019-05-18T10:46:35.451Z,63.20
2019-05-18T10:49:03.905Z,62.80
2019-05-18T10:51:32.524Z,63.40
2019-05-18T10:54:00.964Z,60.60
2019-05-18T10:56:31.192Z,59.80
2019-05-18T10:58:59.548Z,59.60
2019-05-18T11:01:27.967Z,60.90
2019-05-18T11:03:57.018Z,57.70
2019-05-18T11:06:25.471Z,55.40
2019-05-18T11:08:54.221Z,54.10
2019-05-18T11:11:22.838Z,54.40
2019-05-18T11:13:51.341Z,52.70
2019-05-18T11:16:19.882Z,53.20
2019-05-18T11:18:48.535Z,56.20
2019-05-18T11:21:17.024Z,58.80
2019-05-18T11:23:47.990Z,56.70
2019-05-18T11:26:15.803Z,56.40
2019-05-18T11:28:44.308Z,56.70
2019-05-18T11:31:12.794Z,53.10
2019-05-18T11:33:41.343Z,54.40
2019-05-18T11:36:09.773Z,54.20
2019-05-18T11:38:38.371Z,56.30
2019-05-18T11:41:06.894Z,56.20
2019-05-18T11:43:35.534Z,56.80
2019-05-18T11:46:04.038Z,56.20
2019-05-18T11:48:32.913Z,55.00
2019-05-18T11:51:01.715Z,54.60
2019-05-18T11:53:30.295Z,53.70
2019-05-18T11:55:59.668Z,56.50
2019-05-18T11:58:37.909Z,56.90
2019-05-18T12:01:06.602Z,55.90
2019-05-18T12:03:35.566Z,56.20
2019-05-18T12:06:04.990Z,56.00
2019-05-18T12:08:33.626Z,56.20
2019-05-18T12:11:02.222Z,55.70
2019-05-18T12:13:30.753Z,56.20
2019-05-18T12:16:00.553Z,56.90
2019-05-18T12:18:29.147Z,58.00
2019-05-18T12:20:57.695Z,55.90
2019-05-18T12:23:26.314Z,57.10
2019-05-18T12:25:54.743Z,55.50
2019-05-18T12:28:23.245Z,55.30
2019-05-18T12:30:51.854Z,55.80
2019-05-18T12:33:20.530Z,51.90
2019-05-18T12:35:48.999Z,53.20
2019-05-18T12:38:17.760Z,53.40
2019-05-18T12:40:46.268Z,53.70
2019-05-18T12:43:14.763Z,53.50
2019-05-18T12:45:43.222Z,54.00
2019-05-18T12:48:11.658Z,53.80
2019-05-18T12:50:40.110Z,53.90
2019-05-18T12:53:08.691Z,54.80
2019-05-18T12:55:37.270Z,54.00
2019-05-18T12:58:05.858Z,55.00
2019-05-18T13:00:34.797Z,54.40
2019-05-18T13:03:03.457Z,53.30
2019-05-18T13:05:31.988Z,53.30
2019-05-18T13:08:00.491Z,55.00
2019-05-18T13:10:29.079Z,57.50
2019-05-18T13:12:57.569Z,57.00
2019-05-18T13:15:26.075Z,58.00
2019-05-18T13:17:54.677Z,57.80
2019-05-18T13:20:23.257Z,58.00
2019-05-18T13:22:51.690Z,57.00
2019-05-18T13:25:20.470Z,63.50
2019-05-18T13:27:49.036Z,70.30
2019-05-18T13:30:19.892Z,74.30
2019-05-18T13:32:48.697Z,76.20
2019-05-18T13:35:17.252Z,77.00
2019-05-18T13:37:45.756Z,75.50
2019-05-18T13:40:16.323Z,76.50
2019-05-18T13:42:44.871Z,78.80
2019-05-18T13:45:14.577Z,80.30
2019-05-18T13:47:43.655Z,81.20
2019-05-18T13:50:12.850Z,82.20
2019-05-18T13:52:41.276Z,83.20
2019-05-18T13:55:10.339Z,83.60
2019-05-18T13:57:38.916Z,83.40
2019-05-18T14:00:09.510Z,84.70
2019-05-18T14:02:38.015Z,85.80
2019-05-18T14:05:07.112Z,86.60
2019-05-18T14:07:35.620Z,88.80
2019-05-18T14:10:06.619Z,90.00
2019-05-18T14:12:35.096Z,90.20
2019-05-18T14:15:04.389Z,90.70
2019-05-18T14:17:32.879Z,90.90
2019-05-18T14:20:01.413Z,91.10
2019-05-18T14:22:29.960Z,90.60
2019-05-18T14:24:58.453Z,90.50
2019-05-18T14:27:26.896Z,90.50
2019-05-18T14:29:55.995Z,90.90
2019-05-18T14:32:24.478Z,88.80
2019-05-18T14:34:53.003Z,88.90
2019-05-18T14:37:21.476Z,92.50
2019-05-18T14:39:50.077Z,91.60
2019-05-18T14:42:18.504Z,90.10
2019-05-18T14:44:50.345Z,86.20
2019-05-18T14:47:19.104Z,85.40
2019-05-18T14:49:47.867Z,82.30
2019-05-18T14:52:16.502Z,75.70
2019-05-18T14:54:45.101Z,75.60
2019-05-18T14:57:13.743Z,75.40
2019-05-18T14:59:42.255Z,74.10
2019-05-18T15:02:10.877Z,74.00
2019-05-18T15:04:39.407Z,72.80
2019-05-18T15:07:08.034Z,71.60
2019-05-18T15:09:36.474Z,71.60
2019-05-18T15:12:05.052Z,71.60
2019-05-18T15:14:34.991Z,73.40
2019-05-18T15:17:03.451Z,73.40
2019-05-18T15:19:32.038Z,73.70
2019-05-18T15:22:00.562Z,74.70
2019-05-18T15:24:29.098Z,72.60
2019-05-18T15:26:57.595Z,69.70
2019-05-18T15:29:25.997Z,70.60
2019-05-18T15:31:54.527Z,69.40
2019-05-18T15:34:23.104Z,70.90
2019-05-18T15:36:51.558Z,70.10
2019-05-18T15:39:19.983Z,69.90
2019-05-18T15:41:48.459Z,70.90
2019-05-18T15:44:16.891Z,71.50
2019-05-18T15:46:45.434Z,71.40
2019-05-18T15:49:14.127Z,72.10
2019-05-18T15:51:42.607Z,73.20
2019-05-18T15:54:11.096Z,73.10
2019-05-18T15:56:39.571Z,73.50
2019-05-18T15:59:08.041Z,73.50
2019-05-18T16:01:36.545Z,72.70
2019-05-18T16:04:06.623Z,72.60
2019-05-18T16:06:35.480Z,73.10
2019-05-18T16:09:05.847Z,73.40
2019-05-18T16:11:34.326Z,73.60
2019-05-18T16:14:03.453Z,74.20
2019-05-18T16:16:31.902Z,73.70
2019-05-18T16:19:00.316Z,73.10
2019-05-18T16:21:28.848Z,74.30
2019-05-18T16:23:57.300Z,72.90
2019-05-18T16:26:25.772Z,71.80
2019-05-18T16:28:54.220Z,72.10
2019-05-18T16:31:22.832Z,72.80
2019-05-18T16:33:51.302Z,73.60
2019-05-18T16:36:19.780Z,75.10
2019-05-18T16:38:48.238Z,75.40
2019-05-18T16:41:16.668Z,75.40
2019-05-18T16:43:45.147Z,75.70
2019-05-18T16:46:16.484Z,77.90
2019-05-18T16:48:44.939Z,78.60
2019-05-18T16:51:13.389Z,78.80
2019-05-18T16:53:46.938Z,79.30
2019-05-18T16:56:15.191Z,79.00
2019-05-18T16:58:43.781Z,79.10
2019-05-18T17:01:12.227Z,80.30
2019-05-18T17:03:41.210Z,85.50
2019-05-18T17:06:09.874Z,91.20
2019-05-18T17:08:38.480Z,93.10
2019-05-18T17:11:08.498Z,93.60
2019-05-18T17:13:37.056Z,94.10
2019-05-18T17:16:05.726Z,94.30
2019-05-18T17:18:34.560Z,93.90
2019-05-18T17:21:03.064Z,94.70
2019-05-18T17:23:31.550Z,94.80
2019-05-18T17:26:00.022Z,94.70
2019-05-18T17:28:28.574Z,94.80
2019-05-18T17:30:57.107Z,94.50
2019-05-18T17:33:25.779Z,94.20
2019-05-18T17:36:00.365Z,94.00
2019-05-18T17:38:24.714Z,94.40
2019-05-18T17:40:53.394Z,94.00
2019-05-18T17:43:22.131Z,93.00
2019-05-18T17:45:50.611Z,93.10
2019-05-18T17:48:19.233Z,93.40
2019-05-18T17:50:47.645Z,93.40
2019-05-18T17:53:16.106Z,93.80
2019-05-18T17:55:44.552Z,93.60
2019-05-18T17:58:13.044Z,93.90
2019-05-18T18:00:41.584Z,94.00
2019-05-18T18:03:10.284Z,94.20
2019-05-18T18:05:38.788Z,94.40
2019-05-18T18:08:09.303Z,94.50
2019-05-18T18:10:37.846Z,94.90
2019-05-18T18:13:09.419Z,95.50
2019-05-18T18:15:36.732Z,95.30
2019-05-18T18:18:05.238Z,94.30
2019-05-18T18:20:33.746Z,93.90
2019-05-18T18:23:02.245Z,94.10
2019-05-18T18:25:30.726Z,93.80
2019-05-18T18:27:59.234Z,94.70
2019-05-18T18:30:27.758Z,94.90
2019-05-18T18:32:56.206Z,94.80
2019-05-18T18:35:24.674Z,95.00
2019-05-18T18:37:53.174Z,95.50
2019-05-18T18:40:21.771Z,94.70
2019-05-18T18:42:50.502Z,93.90
2019-05-18T18:45:20.586Z,94.30
2019-05-18T18:47:49.498Z,94.20
2019-05-18T18:50:18.078Z,94.30
2019-05-18T18:52:46.588Z,93.70
2019-05-18T18:55:15.100Z,93.20
2019-05-18T18:57:44.173Z,93.70
2019-05-18T19:00:12.964Z,93.70
2019-05-18T19:02:41.421Z,93.50
2019-05-18T19:05:10.416Z,94.40
2019-05-18T19:07:38.947Z,93.80
2019-05-18T19:10:08.735Z,94.80
2019-05-18T19:12:37.272Z,93.50
2019-05-18T19:15:07.030Z,93.50
2019-05-18T19:17:35.535Z,93.50
2019-05-18T19:20:07.530Z,93.90
2019-05-18T19:22:35.949Z,94.30
2019-05-18T19:25:06.038Z,94.50
2019-05-18T19:27:34.617Z,95.20
2019-05-18T19:30:09.286Z,95.10
2019-05-18T19:32:34.586Z,95.40
2019-05-18T19:35:03.162Z,95.50
2019-05-18T19:37:31.682Z,95.80
2019-05-18T19:40:00.164Z,95.90
2019-05-18T19:42:28.617Z,96.20
2019-05-18T19:44:57.158Z,96.40
2019-05-18T19:47:25.750Z,96.70
2019-05-18T19:49:54.460Z,97.50
2019-05-18T19:52:23.038Z,97.80
2019-05-18T19:54:52.835Z,98.00
2019-05-18T19:57:21.309Z,97.90
2019-05-18T19:59:49.744Z,97.90
2019-05-18T20:02:18.633Z,99.50
2019-05-18T20:05:05.862Z,99.90
2019-05-18T20:07:17.880Z,99.90
2019-05-18T20:09:46.441Z,99.90
2019-05-18T20:12:14.867Z,99.90
2019-05-18T20:14:43.588Z,99.90
2019-05-18T20:17:12.458Z,99.80
2019-05-18T20:19:43.703Z,99.90
2019-05-18T20:22:12.441Z,99.90
2019-05-18T20:24:44.129Z,99.90
2019-05-18T20:27:12.614Z,99.90
2019-05-18T20:29:42.288Z,99.90
2019-05-18T20:32:10.808Z,99.90
2019-05-18T20:34:40.708Z,99.90
2019-05-18T20:37:09.105Z,99.90
2019-05-18T20:39:38.995Z,99.90
2019-05-18T20:42:07.459Z,99.90
2019-05-18T20:44:35.915Z,99.90
2019-05-18T20:47:04.473Z,99.90
2019-05-18T20:49:32.990Z,99.90
2019-05-18T20:52:01.452Z,99.90
2019-05-18T20:54:30.191Z,99.90
2019-05-18T20:56:58.647Z,99.90
2019-05-18T20:59:27.073Z,99.90
2019-05-18T21:01:56.164Z,99.90
2019-05-18T21:04:25.291Z,99.90
2019-05-18T21:06:54.378Z,99.90
2019-05-18T21:09:23.335Z,99.90
2019-05-18T21:11:52.103Z,99.90
2019-05-18T21:14:20.587Z,99.90
2019-05-18T21:16:49.071Z,99.90
2019-05-18T21:19:17.585Z,99.90
2019-05-18T21:21:46.112Z,99.90
2019-05-18T21:24:14.552Z,99.90
2019-05-18T21:26:43.137Z,99.90
2019-05-18T21:29:12.147Z,99.90
2019-05-18T21:31:40.577Z,99.90
2019-05-18T21:34:09.494Z,99.90
2019-05-18T21:36:38.091Z,99.90
2019-05-18T21:39:06.597Z,99.90
2019-05-18T21:41:38.319Z,99.90
2019-05-18T21:44:06.748Z,99.90
2019-05-18T21:46:38.582Z,99.90
2019-05-18T21:49:14.058Z,99.90
2019-05-18T21:51:42.643Z,99.90
2019-05-18T21:54:11.239Z,99.90
2019-05-18T21:56:39.846Z,99.90
2019-05-18T21:59:11.890Z,99.90
2019-05-18T22:01:40.419Z,99.90
2019-05-18T22:04:09.037Z,99.90
2019-05-18T22:06:37.470Z,99.90
2019-05-18T22:09:06.656Z,99.90
2019-05-18T22:11:35.459Z,99.90
2019-05-18T22:14:08.388Z,99.90
2019-05-18T22:16:36.832Z,99.90
2019-05-18T22:19:05.343Z,99.90
2019-05-18T22:21:33.844Z,99.90
2019-05-18T22:24:02.296Z,99.90
2019-05-18T22:26:30.847Z,99.90
2019-05-18T22:28:59.462Z,99.90
2019-05-18T22:31:27.970Z,99.90
2019-05-18T22:33:56.381Z,99.90
2019-05-18T22:36:24.852Z,99.90
2019-05-18T22:38:53.397Z,99.90
2019-05-18T22:41:21.935Z,99.90
2019-05-18T22:43:50.486Z,99.90
2019-05-18T22:46:19.089Z,99.90
2019-05-18T22:48:47.926Z,99.90
2019-05-18T22:51:16.547Z,99.90
2019-05-18T22:53:46.638Z,99.90
2019-05-18T22:56:15.344Z,99.90
2019-05-18T22:58:43.794Z,99.90
2019-05-18T23:01:12.246Z,99.90
2019-05-18T23:03:40.852Z,99.90
2019-05-18T23:06:10.150Z,99.90
2019-05-18T23:08:38.737Z,99.90
2019-05-18T23:11:07.201Z,99.90
2019-05-18T23:13:35.644Z,99.90
2019-05-18T23:16:04.146Z,99.90
2019-05-18T23:18:32.785Z,99.90
2019-05-18T23:21:01.214Z,99.90
2019-05-18T23:23:29.677Z,99.90
2019-05-18T23:25:58.218Z,99.90
2019-05-18T23:28:26.698Z,99.90
2019-05-18T23:30:55.138Z,99.90
2019-05-18T23:33:23.754Z,99.90
2019-05-18T23:35:52.356Z,99.90
2019-05-18T23:38:20.980Z,99.90
2019-05-18T23:40:49.414Z,99.90
2019-05-18T23:43:18.039Z,99.90
2019-05-18T23:45:46.733Z,99.90
2019-05-18T23:48:15.222Z,99.90
2019-05-18T23:50:43.868Z,99.90
2019-05-18T23:53:14.499Z,99.90
2019-05-18T23:55:43.206Z,99.90
2019-05-18T23:58:11.780Z,99.90
